Details From LEIB - Ibiza
To LXGB - LXGB Gibraltar
Flight Number -
Tags decoded
Created
Modified
Stats Distance 390 nm / 722 km
Max Altitude 0 ft / 0 m
Waypoints 7
Social Downloads 18
Likes 0
Share VATSIM

Download

Looking for another format? Having issues loading an existing format? Contact us
Advertisement - Login to hide

Notes

Requested: LEIB ALT VSJ AMR MGA PIMOS LXGB

Route

LEIB ALT VSJ AMR MGA PIMOS LXGB

ID Type Via Altitude Latitude Longitude Leg Dist Tot Dist Heading (true) Name
O LEIB APT - 0 ft / 0 m 38.87287˚ 1.37304˚ - 0 nm - Ibiza
ALT VOR - 0 ft / 0 m 38.26828˚ -0.57012˚ 98 nm 98 nm 249° / 248° ALICANTE VOR-DME
VSJ VOR - 0 ft / 0 m 37.77978˚ -0.81278˚ 31 nm 129 nm 201° / 201° MURCIA/SAN JAVIER VOR-DME
AMR VOR - 0 ft / 0 m 36.83317˚ -2.25942˚ 89 nm 219 nm 231° / 230° ALMERIA VOR-DME
MGA VOR - 0 ft / 0 m 36.81431˚ -4.36952˚ 101 nm 320 nm 270° / 269° MALAGA VOR-DME
PIMOS FIX - 0 ft / 0 m 36.15027˚ -4.89346˚ 47 nm 367 nm 213° / 212° -
O LXGB APT - 0 ft / 0 m 36.15121˚ -5.34966˚ 22 nm 389 nm 270° / 270° LXGB Gibraltar

Altitude Profile

Advertisement - Login to hide

Weather


0- 5 10 15 20 25 30 35+ Temperature / ° C

Clouds and Precipitation
Forecast for 2018-05-25 18:00 UTC. Updated 6 hours ago

Ground ~20,000 ft ~40,000 ft Winds

LEIB

Details ICAO LEIB (IBZ)
Name Ibiza
Region Spain
Timezone Europe/Madrid (UTC+2.0)
Stats Elevation 20 ft / 6 m (AMSL)
Location 38.872871° 1.373045°
Runways 1
Magnetic Variation 0.711° E

METAR

LEIB 252300Z VRB01KT 9000 FEW008 19/17 Q1013 NOSIG

Decode

TAF

TAF LEIB 252000Z 2521/2621 20008KT 9999 FEW010 TX25/2612Z TN15/2606Z BECMG 2521/2523 VRB03KT TEMPO 2522/2607 2000 BR FEW008 BKN012 BECMG 2609/2611 12009KT

Decode

Departure Runways

ID Width Length Bearing (true) Bearing (mag) Surface Threshold Offset Overrun Length
06 148 ft / 45 m 9,153 ft / 2,790 m 61.85° 61.14° Asphalt 0 ft / 0 m 213 ft / 65 m
24 148 ft / 45 m 9,153 ft / 2,790 m 241.86° 241.15° Asphalt 0 ft / 0 m 197 ft / 60 m

LXGB

Details ICAO LXGB (GIB)
Name Gibraltar
Region Gibralter
Timezone Europe/Gibraltar (UTC+2.0)
Stats Elevation 15 ft / 5 m (AMSL)
Location 36.151209° -5.349664°
Runways 1
Magnetic Variation 1.072° W

METAR

LXGB 252250Z AUTO 28004KT 9999 // NCD 18/13 Q1014

Decode

TAF

Not found

Destination Runways

ID Width Length Bearing (true) Bearing (mag) Surface Threshold Offset Overrun Length
27 151 ft / 46 m 5,992 ft / 1,826 m 267.56° 268.63° Asphalt 367 ft / 112 m 89 ft / 27 m
9 151 ft / 46 m 5,992 ft / 1,826 m 87.54° 88.61° Asphalt 299 ft / 91 m 52 ft / 16 m

Popular Alternatives